Time;durP1;ratioP1;P1;durP2;ratioP2;P2;SDS_P1;SDS_P2;PMS_P1;PMS_P2;Temp;Humidity;BMP_temperature;BMP_pressure;BME280_temperature;BME280_humidity;BME280_pressure;Samples;Min_cycle;Max_cycle;Signal;HPM_P1;HPM_P2
2023/05/25 00:00:43;;;;;;;22.92;10.43;;;11.90;84.00;;;;;;5022586;28;20024;-79
2023/05/25 00:03:09;;;;;;;23.45;11.05;;;11.90;84.10;;;;;;5018175;28;20084;-79
2023/05/25 00:05:35;;;;;;;20.33;10.57;;;11.90;84.10;;;;;;5023447;28;20062;-79
2023/05/25 00:08:01;;;;;;;22.98;11.13;;;11.80;84.30;;;;;;5018856;28;20061;-78
2023/05/25 00:10:26;;;;;;;23.00;10.27;;;11.80;84.40;;;;;;5023387;28;20037;-77
2023/05/25 00:12:54;;;;;;;24.17;10.55;;;11.80;84.20;;;;;;5018563;28;20233;-78
2023/05/25 00:15:20;;;;;;;26.48;12.15;;;11.80;84.40;;;;;;5022837;28;20473;-78
2023/05/25 00:17:47;;;;;;;23.17;11.30;;;11.80;84.40;;;;;;5021144;28;20429;-76
2023/05/25 00:20:13;;;;;;;25.92;10.98;;;11.70;84.50;;;;;;5021644;28;20033;-78
2023/05/25 00:22:43;;;;;;;23.98;11.73;;;11.70;84.60;;;;;;5021553;28;20034;-78
2023/05/25 00:25:10;;;;;;;21.92;11.02;;;11.70;84.70;;;;;;5016437;28;20534;-78
2023/05/25 00:27:36;;;;;;;25.88;12.10;;;11.70;84.80;;;;;;5019471;28;20029;-78
2023/05/25 00:30:02;;;;;;;22.25;10.65;;;11.60;84.80;;;;;;5021182;28;20029;-78
2023/05/25 00:32:27;;;;;;;26.35;11.98;;;11.70;84.80;;;;;;5021428;28;20049;-77
2023/05/25 00:34:54;;;;;;;21.50;11.45;;;11.60;84.90;;;;;;5017384;28;20040;-77
2023/05/25 00:37:20;;;;;;;23.02;11.80;;;11.60;84.80;;;;;;5024816;28;20048;-77
2023/05/25 00:39:45;;;;;;;24.95;13.30;;;11.60;85.00;;;;;;5018168;28;20018;-78
2023/05/25 00:42:11;;;;;;;24.23;11.65;;;11.60;85.10;;;;;;5021784;28;20041;-77
2023/05/25 00:44:37;;;;;;;24.13;12.45;;;11.60;85.20;;;;;;5016852;28;20057;-78
2023/05/25 00:47:03;;;;;;;33.05;13.98;;;11.60;85.30;;;;;;5024629;28;20048;-78
2023/05/25 00:49:33;;;;;;;23.50;12.35;;;11.60;85.30;;;;;;5018889;28;20049;-77
2023/05/25 00:51:59;;;;;;;26.60;13.45;;;11.50;85.40;;;;;;5020952;28;20046;-77
2023/05/25 00:54:24;;;;;;;23.95;12.98;;;11.50;85.60;;;;;;5017415;28;20018;-78
2023/05/25 00:56:52;;;;;;;24.23;12.05;;;11.50;85.60;;;;;;5023194;28;20847;-77
2023/05/25 00:59:27;;;;;;;26.15;12.73;;;11.40;86.00;;;;;;5024610;28;20032;-78
2023/05/25 01:01:54;;;;;;;24.38;12.07;;;11.40;86.10;;;;;;5019410;28;20532;-78
2023/05/25 01:04:21;;;;;;;28.88;13.60;;;11.30;86.40;;;;;;5023401;28;20485;-78
2023/05/25 01:06:48;;;;;;;24.63;13.32;;;11.30;86.50;;;;;;5021279;28;20592;-78
2023/05/25 01:09:17;;;;;;;23.23;12.20;;;11.30;86.50;;;;;;5024911;28;20092;-77
2023/05/25 01:11:48;;;;;;;27.05;13.43;;;11.30;86.40;;;;;;5018580;28;20042;-78
2023/05/25 01:14:20;;;;;;;26.30;12.25;;;11.30;86.30;;;;;;5017765;28;20473;-78
2023/05/25 01:16:46;;;;;;;23.15;12.27;;;11.30;86.40;;;;;;5015849;28;20439;-78
2023/05/25 01:19:12;;;;;;;26.15;13.20;;;11.30;86.20;;;;;;5023376;28;20021;-78
2023/05/25 01:22:05;;;;;;;22.33;11.57;;;11.30;86.30;;;;;;5021053;28;20115;-78
2023/05/25 01:24:31;;;;;;;29.23;12.63;;;11.30;86.20;;;;;;5020942;28;20018;-78
2023/05/25 01:27:07;;;;;;;20.77;12.02;;;11.20;86.20;;;;;;5017051;28;20347;-78
2023/05/25 01:29:35;;;;;;;25.58;12.65;;;11.20;86.20;;;;;;5020003;28;20049;-76
2023/05/25 01:32:03;;;;;;;21.48;11.80;;;11.20;86.20;;;;;;5021436;28;20632;-78
2023/05/25 01:34:30;;;;;;;24.73;12.70;;;11.10;86.30;;;;;;5022823;28;20044;-77
2023/05/25 01:36:56;;;;;;;25.88;12.48;;;11.20;86.40;;;;;;5021555;28;20037;-78
2023/05/25 01:39:22;;;;;;;23.70;12.90;;;11.10;86.30;;;;;;5018761;28;20037;-77
2023/05/25 01:41:47;;;;;;;29.25;12.75;;;11.20;86.40;;;;;;5017346;28;20037;-78
2023/05/25 01:44:14;;;;;;;22.05;12.02;;;11.10;86.40;;;;;;5022085;28;20028;-78
2023/05/25 01:46:40;;;;;;;28.45;13.52;;;11.10;86.40;;;;;;5023693;28;20030;-78
2023/05/25 01:49:14;;;;;;;23.10;12.88;;;11.10;86.40;;;;;;5020402;28;20377;-78
2023/05/25 01:51:50;;;;;;;23.15;13.32;;;11.10;86.50;;;;;;5018787;28;20052;-76
2023/05/25 01:54:18;;;;;;;21.80;12.52;;;11.10;86.60;;;;;;5017195;28;20104;-78
2023/05/25 01:56:46;;;;;;;27.58;12.38;;;11.10;86.70;;;;;;5016841;28;20057;-78
2023/05/25 01:59:15;;;;;;;23.33;13.32;;;11.10;86.60;;;;;;5018648;28;20029;-78
2023/05/25 02:01:42;;;;;;;28.48;13.48;;;11.00;86.70;;;;;;5019781;28;20120;-78
2023/05/25 02:04:08;;;;;;;28.20;12.20;;;11.00;86.70;;;;;;5020462;28;20108;-77
2023/05/25 02:06:37;;;;;;;21.67;13.00;;;11.00;86.90;;;;;;5022468;28;20619;-79
2023/05/25 02:09:03;;;;;;;26.95;13.15;;;10.90;86.80;;;;;;5019567;28;20112;-79
2023/05/25 02:11:28;;;;;;;23.63;13.80;;;10.90;86.80;;;;;;5020813;28;20449;-78
2023/05/25 02:13:54;;;;;;;31.20;13.18;;;10.80;87.00;;;;;;5021815;28;20037;-77
2023/05/25 02:16:20;;;;;;;24.88;13.95;;;10.80;87.00;;;;;;5019490;28;20034;-78
2023/05/25 02:18:45;;;;;;;26.33;13.50;;;10.80;87.10;;;;;;5017002;28;20026;-78
2023/05/25 02:21:11;;;;;;;25.73;15.10;;;10.80;87.10;;;;;;5020117;28;20017;-75
2023/05/25 02:23:37;;;;;;;25.20;13.60;;;10.70;87.10;;;;;;5020212;28;20049;-78
2023/05/25 02:26:03;;;;;;;25.50;14.35;;;10.70;87.30;;;;;;5019519;28;20508;-78
2023/05/25 02:28:28;;;;;;;30.38;15.77;;;10.70;87.30;;;;;;5017770;28;20051;-78
2023/05/25 02:30:54;;;;;;;28.00;15.63;;;10.70;87.30;;;;;;5013736;28;20025;-77
2023/05/25 02:33:20;;;;;;;25.65;14.20;;;10.70;87.30;;;;;;5020564;28;20033;-78
2023/05/25 02:35:46;;;;;;;27.90;13.90;;;10.60;87.50;;;;;;5017574;28;20021;-78
2023/05/25 02:38:11;;;;;;;28.40;15.43;;;10.60;87.50;;;;;;5018147;28;21521;-78
2023/05/25 02:40:37;;;;;;;27.27;14.50;;;10.60;87.50;;;;;;5013548;28;20652;-78
2023/05/25 02:43:03;;;;;;;24.88;13.63;;;10.60;87.50;;;;;;5021107;28;20068;-78
2023/05/25 02:45:28;;;;;;;25.23;15.50;;;10.60;87.50;;;;;;5012669;28;20041;-78
2023/05/25 02:47:54;;;;;;;29.27;15.52;;;10.60;87.60;;;;;;5018921;28;20034;-77
2023/05/25 02:50:20;;;;;;;26.70;15.20;;;10.50;87.80;;;;;;5020527;28;20028;-79
2023/05/25 02:52:46;;;;;;;29.48;15.48;;;10.50;87.90;;;;;;5020740;28;20026;-78
2023/05/25 02:55:17;;;;;;;26.05;14.90;;;10.50;88.00;;;;;;5020539;28;20036;-77
2023/05/25 02:57:43;;;;;;;27.13;15.65;;;10.50;87.80;;;;;;5019608;28;20033;-79
2023/05/25 03:00:12;;;;;;;29.52;16.08;;;10.50;88.00;;;;;;5015255;28;20450;-78
2023/05/25 03:02:38;;;;;;;30.00;16.73;;;10.50;87.90;;;;;;5020395;28;20123;-78
2023/05/25 03:05:05;;;;;;;27.77;16.13;;;10.40;88.00;;;;;;5017770;28;20067;-77
2023/05/25 03:07:31;;;;;;;30.67;16.27;;;10.40;88.20;;;;;;5017889;28;20041;-78
2023/05/25 03:09:57;;;;;;;27.63;16.50;;;10.40;88.20;;;;;;5016735;28;20034;-78
2023/05/25 03:12:22;;;;;;;32.17;16.58;;;10.40;88.20;;;;;;5015333;28;20076;-77
2023/05/25 03:14:49;;;;;;;29.80;16.38;;;10.40;88.30;;;;;;5020482;28;20132;-78
2023/05/25 03:17:15;;;;;;;26.50;16.20;;;10.40;88.30;;;;;;5018538;28;20425;-78
2023/05/25 03:19:41;;;;;;;25.73;15.77;;;10.40;88.30;;;;;;5019807;28;20465;-78
2023/05/25 03:22:07;;;;;;;28.65;15.55;;;10.40;88.00;;;;;;5017647;28;20097;-79
2023/05/25 03:24:32;;;;;;;25.48;16.10;;;10.40;88.00;;;;;;5022183;28;20048;-77
2023/05/25 03:26:58;;;;;;;32.03;15.93;;;10.30;88.00;;;;;;5018309;28;20073;-79
2023/05/25 03:29:23;;;;;;;28.13;15.65;;;10.30;87.90;;;;;;5018848;28;20108;-79
2023/05/25 03:31:49;;;;;;;28.85;16.42;;;10.30;87.90;;;;;;5018003;28;20034;-78
2023/05/25 03:34:15;;;;;;;28.50;15.95;;;10.30;87.90;;;;;;5018151;28;20124;-78
2023/05/25 03:36:44;;;;;;;26.98;15.10;;;10.30;87.90;;;;;;5013008;28;20036;-78
2023/05/25 03:39:10;;;;;;;27.90;16.05;;;10.30;87.90;;;;;;5016649;28;20370;-78
2023/05/25 03:41:36;;;;;;;28.20;16.08;;;10.20;87.90;;;;;;5020370;28;20069;-76
2023/05/25 03:44:02;;;;;;;27.45;16.02;;;10.20;88.00;;;;;;5021012;28;20520;-77
2023/05/25 03:46:28;;;;;;;29.42;16.60;;;10.20;88.10;;;;;;5016989;28;20034;-78
2023/05/25 03:48:53;;;;;;;26.38;15.88;;;10.10;88.00;;;;;;5018225;28;20564;-78
2023/05/25 03:51:19;;;;;;;26.42;14.88;;;10.20;88.10;;;;;;5018239;28;20072;-78
2023/05/25 03:53:45;;;;;;;28.00;15.60;;;10.10;88.10;;;;;;5023943;28;20116;-75
2023/05/25 03:56:10;;;;;;;26.27;15.60;;;10.10;88.10;;;;;;5021172;28;20466;-77
2023/05/25 03:58:36;;;;;;;26.27;15.20;;;10.10;88.10;;;;;;5020171;28;20083;-78
2023/05/25 04:01:02;;;;;;;28.80;16.58;;;10.20;88.10;;;;;;5012340;28;20201;-78
2023/05/25 04:03:31;;;;;;;28.15;15.82;;;10.20;88.00;;;;;;5016471;28;20128;-78
2023/05/25 04:05:59;;;;;;;28.98;15.45;;;10.20;87.90;;;;;;5021140;28;20029;-78
2023/05/25 04:08:25;;;;;;;25.77;14.25;;;10.20;87.90;;;;;;5017126;28;20413;-77
2023/05/25 04:10:50;;;;;;;26.67;15.13;;;10.20;87.90;;;;;;5013644;28;20149;-79
2023/05/25 04:13:16;;;;;;;26.65;14.35;;;10.30;87.80;;;;;;5020138;28;20467;-78
2023/05/25 04:15:42;;;;;;;24.90;14.40;;;10.30;87.60;;;;;;5023120;28;20041;-79
2023/05/25 04:18:08;;;;;;;30.73;15.13;;;10.30;87.40;;;;;;5021442;28;20041;-78
2023/05/25 04:20:33;;;;;;;26.25;14.43;;;10.40;87.40;;;;;;5024294;28;20492;-77
2023/05/25 04:22:59;;;;;;;25.10;14.20;;;10.40;87.30;;;;;;5020717;28;20052;-78
2023/05/25 04:25:25;;;;;;;26.00;15.07;;;10.50;87.30;;;;;;5019043;28;20046;-79
2023/05/25 04:27:52;;;;;;;27.50;14.60;;;10.40;87.20;;;;;;5024054;28;20478;-79
2023/05/25 04:30:18;;;;;;;28.50;16.17;;;10.50;87.10;;;;;;5025478;28;20024;-78
2023/05/25 04:32:45;;;;;;;26.25;14.32;;;10.50;87.00;;;;;;5021239;28;20050;-78
2023/05/25 04:35:13;;;;;;;32.47;16.17;;;10.60;87.10;;;;;;5022726;28;20087;-79
2023/05/25 04:37:39;;;;;;;31.25;15.48;;;10.60;87.00;;;;;;5019605;28;20650;-78
2023/05/25 04:40:09;;;;;;;24.27;15.23;;;10.60;86.90;;;;;;5016902;28;20144;-78
2023/05/25 04:42:36;;;;;;;26.33;14.93;;;10.70;86.90;;;;;;5018149;28;20038;-78
2023/05/25 04:45:02;;;;;;;27.58;15.30;;;10.70;86.90;;;;;;5019858;28;20040;-78
2023/05/25 04:47:29;;;;;;;28.00;14.38;;;10.80;86.80;;;;;;5023960;28;20034;-78
2023/05/25 04:49:55;;;;;;;23.80;14.55;;;10.80;86.80;;;;;;5022004;28;20381;-78
2023/05/25 04:52:21;;;;;;;26.88;13.98;;;10.80;86.70;;;;;;5025374;28;20045;-76
2023/05/25 04:54:47;;;;;;;26.13;14.18;;;10.90;86.70;;;;;;5017042;28;20084;-78
2023/05/25 04:57:12;;;;;;;28.05;15.18;;;11.00;86.60;;;;;;5015394;28;20136;-78
2023/05/25 04:59:38;;;;;;;26.85;15.15;;;11.00;86.30;;;;;;5019820;28;20559;-75
2023/05/25 05:02:04;;;;;;;26.55;14.70;;;11.10;86.30;;;;;;5013989;28;20052;-76
2023/05/25 05:04:29;;;;;;;29.35;14.80;;;11.10;86.30;;;;;;5016876;28;20107;-76
2023/05/25 05:06:55;;;;;;;31.10;15.35;;;11.20;86.20;;;;;;5018619;28;20060;-77
2023/05/25 05:09:21;;;;;;;24.30;13.85;;;11.20;86.10;;;;;;5018517;28;20108;-77
2023/05/25 05:11:47;;;;;;;24.13;13.52;;;11.30;86.10;;;;;;5018202;28;20482;-77
2023/05/25 05:14:12;;;;;;;27.00;14.45;;;11.40;85.90;;;;;;5022280;28;20038;-77
2023/05/25 05:16:38;;;;;;;27.85;14.60;;;11.50;85.70;;;;;;5021034;28;20042;-77
2023/05/25 05:19:04;;;;;;;25.92;15.07;;;11.60;85.60;;;;;;5018896;28;20025;-76
2023/05/25 05:21:29;;;;;;;27.85;13.50;;;12.30;85.10;;;;;;5018475;28;20110;-77
2023/05/25 05:23:55;;;;;;;21.65;11.40;;;13.60;81.40;;;;;;5016719;28;20045;-75
2023/05/25 05:26:21;;;;;;;26.50;11.63;;;14.80;76.70;;;;;;5013252;28;20034;-75
2023/05/25 05:28:47;;;;;;;25.67;11.18;;;15.50;73.40;;;;;;5019114;28;20533;-75
2023/05/25 05:31:16;;;;;;;24.08;10.88;;;16.50;69.20;;;;;;5019103;28;20030;-75
2023/05/25 05:33:42;;;;;;;21.23;10.55;;;17.00;67.60;;;;;;5015668;28;20030;-74
2023/05/25 05:36:08;;;;;;;19.08;10.70;;;17.70;64.80;;;;;;5018690;28;20053;-74
2023/05/25 05:38:33;;;;;;;17.23;10.15;;;17.60;64.00;;;;;;5017087;28;20116;-74
2023/05/25 05:41:00;;;;;;;22.58;9.70;;;18.00;63.80;;;;;;5018446;28;20583;-75
2023/05/25 05:43:26;;;;;;;18.30;10.05;;;18.10;62.20;;;;;;5019864;28;20394;-76
2023/05/25 05:45:52;;;;;;;19.42;10.30;;;17.70;63.40;;;;;;5018214;28;20345;-76
2023/05/25 05:48:17;;;;;;;18.13;10.48;;;17.40;63.80;;;;;;5019149;28;20040;-76
2023/05/25 05:50:43;;;;;;;23.88;11.07;;;17.30;65.40;;;;;;5018620;28;20021;-75
2023/05/25 05:53:09;;;;;;;21.13;10.38;;;17.00;65.50;;;;;;5010074;28;20037;-76
2023/05/25 05:55:35;;;;;;;22.40;11.98;;;16.10;67.90;;;;;;5013676;28;20425;-76
2023/05/25 05:58:01;;;;;;;26.45;12.93;;;15.30;70.80;;;;;;5010624;28;20353;-77
2023/05/25 06:00:26;;;;;;;24.65;12.45;;;14.70;72.70;;;;;;5019350;28;20117;-77
2023/05/25 06:02:52;;;;;;;20.25;11.82;;;14.30;75.30;;;;;;5023895;28;20137;-76
2023/05/25 06:05:18;;;;;;;25.20;13.88;;;14.20;76.10;;;;;;5024374;28;20036;-76
2023/05/25 06:07:44;;;;;;;23.95;13.38;;;14.20;76.20;;;;;;5018447;28;20022;-77
2023/05/25 06:10:10;;;;;;;21.55;12.10;;;14.10;76.70;;;;;;5021004;28;20369;-76
2023/05/25 06:12:35;;;;;;;26.15;13.32;;;14.10;77.40;;;;;;5019910;28;20076;-77
2023/05/25 06:15:02;;;;;;;21.70;12.65;;;13.80;76.80;;;;;;5022899;28;20033;-76
2023/05/25 06:17:28;;;;;;;21.17;12.50;;;13.70;77.40;;;;;;5016307;28;20037;-76
2023/05/25 06:19:54;;;;;;;22.33;12.35;;;13.90;77.10;;;;;;5020054;28;20035;-77
2023/05/25 06:22:21;;;;;;;26.13;12.02;;;14.00;77.10;;;;;;5013646;28;20378;-78
2023/05/25 06:24:47;;;;;;;20.92;11.10;;;14.00;76.00;;;;;;4999870;28;20026;-77
2023/05/25 06:27:12;;;;;;;21.77;10.18;;;14.10;75.40;;;;;;5002309;28;20045;-76
2023/05/25 06:29:38;;;;;;;24.90;11.43;;;13.90;75.40;;;;;;5010865;28;20035;-77
2023/05/25 06:32:04;;;;;;;22.60;10.63;;;13.80;76.50;;;;;;5005002;28;20038;-76
2023/05/25 06:34:30;;;;;;;26.13;12.25;;;13.70;76.80;;;;;;5003207;28;20474;-79
2023/05/25 06:36:56;;;;;;;19.63;11.95;;;14.00;76.60;;;;;;5004144;28;20049;-79
2023/05/25 06:39:21;;;;;;;21.48;11.27;;;14.10;75.90;;;;;;5001264;28;20040;-80
2023/05/25 06:41:47;;;;;;;22.77;10.75;;;14.10;75.30;;;;;;5001043;28;20497;-76
2023/05/25 06:44:12;;;;;;;23.50;11.98;;;14.20;75.50;;;;;;4998911;28;20030;-77
2023/05/25 06:46:38;;;;;;;18.90;10.48;;;14.40;75.50;;;;;;5001629;28;20030;-78
2023/05/25 06:49:04;;;;;;;18.88;9.77;;;14.70;74.70;;;;;;4999814;28;20034;-77
2023/05/25 06:51:31;;;;;;;23.35;11.35;;;14.90;73.70;;;;;;4998354;28;20061;-75
2023/05/25 06:53:57;;;;;;;18.27;10.13;;;15.00;73.10;;;;;;5012794;28;20038;-75
2023/05/25 06:56:23;;;;;;;17.23;11.02;;;14.90;73.00;;;;;;4994402;28;20049;-75
2023/05/25 06:58:49;;;;;;;17.92;9.63;;;15.10;71.80;;;;;;5010882;28;20045;-75
2023/05/25 07:01:15;;;;;;;19.38;10.55;;;15.30;72.40;;;;;;5000545;28;20034;-74
2023/05/25 07:03:41;;;;;;;17.30;9.13;;;15.60;71.10;;;;;;5005878;28;20037;-74
2023/05/25 07:06:07;;;;;;;16.95;9.65;;;15.10;70.30;;;;;;4999571;28;20037;-75
2023/05/25 07:08:33;;;;;;;17.50;8.98;;;15.20;71.40;;;;;;5003804;28;20026;-76
2023/05/25 07:10:59;;;;;;;16.50;7.10;;;15.50;70.60;;;;;;5002714;28;20040;-75
2023/05/25 07:13:24;;;;;;;16.20;7.22;;;15.70;69.40;;;;;;5006761;28;20045;-75
2023/05/25 07:15:51;;;;;;;17.38;7.55;;;15.80;68.00;;;;;;4998702;28;20516;-75
2023/05/25 07:18:17;;;;;;;16.77;8.20;;;15.90;67.90;;;;;;4997854;28;20037;-75
2023/05/25 07:20:43;;;;;;;16.95;6.82;;;16.20;66.10;;;;;;4998807;28;20026;-75
2023/05/25 07:23:11;;;;;;;13.18;6.55;;;16.20;65.00;;;;;;4998908;28;20054;-74
2023/05/25 07:25:38;;;;;;;14.70;7.45;;;16.00;64.80;;;;;;5001996;28;20494;-75
2023/05/25 07:28:04;;;;;;;15.55;7.05;;;15.70;65.90;;;;;;5002489;28;20555;-75
2023/05/25 07:30:30;;;;;;;15.75;7.40;;;15.80;66.70;;;;;;4997400;28;20048;-74
2023/05/25 07:32:57;;;;;;;27.45;15.77;;;16.00;66.20;;;;;;4999699;28;20050;-74
2023/05/25 07:35:23;;;;;;;12.20;6.63;;;16.20;65.60;;;;;;4995110;28;20040;-74
2023/05/25 07:37:59;;;;;;;14.82;6.82;;;16.00;65.40;;;;;;5021224;28;20087;-76
2023/05/25 07:40:25;;;;;;;14.80;7.10;;;15.80;66.20;;;;;;5020313;28;20096;-76
2023/05/25 07:42:51;;;;;;;15.02;7.57;;;15.70;66.10;;;;;;5012152;28;20068;-78
2023/05/25 07:45:17;;;;;;;18.65;8.55;;;15.80;65.90;;;;;;5004421;28;20057;-79
2023/05/25 07:47:43;;;;;;;23.25;11.02;;;16.10;65.80;;;;;;5013510;28;20373;-78
2023/05/25 07:50:09;;;;;;;15.27;8.30;;;16.10;65.20;;;;;;5023526;28;20417;-79
2023/05/25 07:52:35;;;;;;;16.67;6.60;;;16.40;65.10;;;;;;5020067;28;20468;-80
2023/05/25 07:55:00;;;;;;;18.08;6.97;;;16.40;62.90;;;;;;5027907;28;20497;-79
2023/05/25 07:57:26;;;;;;;13.27;6.88;;;16.50;62.70;;;;;;5019620;28;20040;-78
2023/05/25 07:59:52;;;;;;;14.07;7.97;;;17.10;62.80;;;;;;5015994;28;20061;-78
2023/05/25 08:02:18;;;;;;;16.33;7.97;;;17.10;61.20;;;;;;5018811;28;20029;-79
2023/05/25 08:04:44;;;;;;;13.52;7.57;;;16.50;63.40;;;;;;5027913;28;20080;-79
2023/05/25 08:07:10;;;;;;;11.70;7.25;;;16.70;62.90;;;;;;5019753;28;20041;-78
2023/05/25 08:09:36;;;;;;;15.25;7.97;;;17.00;62.20;;;;;;5022502;28;20025;-78
2023/05/25 08:12:02;;;;;;;16.23;8.25;;;17.30;61.20;;;;;;5022715;28;20054;-78
2023/05/25 08:14:27;;;;;;;12.82;7.80;;;17.10;61.90;;;;;;5018612;28;20033;-77
2023/05/25 08:16:53;;;;;;;15.75;7.82;;;17.30;61.30;;;;;;5023001;28;20061;-78
2023/05/25 08:19:19;;;;;;;15.85;8.43;;;17.80;60.80;;;;;;5020254;28;20420;-78
2023/05/25 08:21:45;;;;;;;15.98;8.10;;;17.70;59.30;;;;;;5022262;28;20045;-79
2023/05/25 08:24:10;;;;;;;17.33;8.48;;;17.40;61.90;;;;;;5022547;28;20397;-78
2023/05/25 08:26:37;;;;;;;17.65;8.90;;;17.60;60.70;;;;;;5016066;28;20042;-78
2023/05/25 08:29:03;;;;;;;13.88;7.15;;;16.70;61.90;;;;;;5001299;28;20360;-78
2023/05/25 08:31:31;;;;;;;13.45;8.13;;;16.70;61.20;;;;;;5008245;28;20034;-78
2023/05/25 08:33:57;;;;;;;15.65;7.60;;;16.60;62.00;;;;;;5003572;28;20045;-78
2023/05/25 08:36:24;;;;;;;17.88;8.32;;;16.70;62.20;;;;;;5001774;28;20037;-77
2023/05/25 08:38:50;;;;;;;13.45;7.03;;;16.80;61.20;;;;;;5003500;28;20124;-79
2023/05/25 08:41:16;;;;;;;14.10;6.97;;;16.80;60.20;;;;;;5002990;28;20040;-78
2023/05/25 08:43:42;;;;;;;13.57;7.03;;;17.10;60.20;;;;;;5025030;28;20018;-78
2023/05/25 08:46:08;;;;;;;14.07;7.35;;;17.50;59.90;;;;;;5021919;28;20033;-78
2023/05/25 08:48:36;;;;;;;14.07;7.75;;;18.00;58.80;;;;;;5019352;28;20052;-74
2023/05/25 08:51:09;;;;;;;13.43;8.40;;;18.30;56.80;;;;;;5023624;28;20033;-77
2023/05/25 08:53:37;;;;;;;17.27;11.87;;;18.50;56.40;;;;;;5021885;28;20056;-76
2023/05/25 08:56:25;;;;;;;16.80;14.00;;;18.40;59.40;;;;;;5023281;28;20132;-77
2023/05/25 08:59:25;;;;;;;18.65;15.60;;;18.60;57.80;;;;;;5021012;28;20040;-77
2023/05/25 09:01:57;;;;;;;22.85;16.35;;;18.60;58.00;;;;;;5019543;28;20036;-76
2023/05/25 09:04:24;;;;;;;20.55;15.45;;;18.30;57.30;;;;;;5022603;28;20025;-77
2023/05/25 09:06:50;;;;;;;16.95;12.50;;;18.00;59.00;;;;;;5018278;28;20462;-77
2023/05/25 09:09:17;;;;;;;18.17;14.98;;;17.80;57.50;;;;;;5020233;28;20041;-77
2023/05/25 09:11:43;;;;;;;21.95;14.27;;;18.10;58.10;;;;;;5021381;28;20099;-77
2023/05/25 09:14:10;;;;;;;16.88;14.35;;;18.20;57.60;;;;;;5020956;28;20045;-77
2023/05/25 09:16:39;;;;;;;19.25;14.75;;;18.20;57.10;;;;;;5022233;28;20112;-77
2023/05/25 09:19:05;;;;;;;14.13;11.50;;;18.10;57.50;;;;;;5018781;28;20017;-77
2023/05/25 09:21:31;;;;;;;17.85;11.25;;;18.20;55.10;;;;;;5022506;28;20052;-76
2023/05/25 09:23:58;;;;;;;17.10;9.73;;;18.10;55.00;;;;;;5018242;28;20348;-77
2023/05/25 09:26:25;;;;;;;17.27;11.93;;;18.30;54.70;;;;;;5017719;28;20319;-77
2023/05/25 09:28:51;;;;;;;14.73;11.57;;;18.60;55.20;;;;;;5019523;28;20022;-77
2023/05/25 09:31:16;;;;;;;18.60;14.13;;;18.40;54.90;;;;;;5019314;28;20025;-76
2023/05/25 09:33:42;;;;;;;19.05;14.23;;;18.30;54.60;;;;;;5019983;28;20033;-76
2023/05/25 09:36:09;;;;;;;15.30;12.55;;;18.20;55.00;;;;;;5018650;28;20482;-76
2023/05/25 09:38:35;;;;;;;18.10;14.05;;;18.60;55.70;;;;;;5019580;28;20480;-78
2023/05/25 09:41:01;;;;;;;16.65;13.63;;;18.30;54.60;;;;;;5018839;28;20040;-75
2023/05/25 09:43:26;;;;;;;17.20;11.82;;;18.30;55.50;;;;;;5020264;28;20029;-76
2023/05/25 09:45:52;;;;;;;16.23;11.88;;;18.10;56.00;;;;;;5022855;28;20079;-75
2023/05/25 09:48:20;;;;;;;13.18;11.32;;;18.20;55.70;;;;;;5023290;28;20065;-77
2023/05/25 09:50:45;;;;;;;14.50;11.45;;;18.20;55.00;;;;;;5017847;28;20042;-75
2023/05/25 09:53:11;;;;;;;14.68;10.57;;;18.30;56.60;;;;;;5016295;28;20025;-77
2023/05/25 09:55:37;;;;;;;14.45;10.48;;;18.70;54.60;;;;;;5020716;28;20026;-78
2023/05/25 09:58:04;;;;;;;14.35;11.05;;;19.10;54.40;;;;;;5016878;28;20068;-77
2023/05/25 10:00:30;;;;;;;11.65;8.80;;;18.70;54.00;;;;;;5018669;28;20474;-76
2023/05/25 10:02:56;;;;;;;13.25;7.93;;;18.50;54.90;;;;;;5021806;28;20064;-79
2023/05/25 10:05:22;;;;;;;11.60;6.30;;;18.40;54.20;;;;;;5023517;28;20076;-77
2023/05/25 10:07:52;;;;;;;10.30;5.72;;;18.50;55.40;;;;;;5016472;28;20045;-77
2023/05/25 10:10:18;;;;;;;10.23;5.57;;;18.30;55.40;;;;;;5024204;28;20025;-77
2023/05/25 10:12:44;;;;;;;10.27;6.30;;;18.50;55.30;;;;;;5019390;28;20474;-77
2023/05/25 10:15:13;;;;;;;10.60;6.75;;;18.70;54.60;;;;;;5019568;28;20032;-77
2023/05/25 10:17:53;;;;;;;9.43;6.07;;;18.60;53.90;;;;;;5019558;28;20489;-76
2023/05/25 10:20:22;;;;;;;12.32;6.03;;;18.40;54.70;;;;;;5019671;28;20105;-78
2023/05/25 10:23:04;;;;;;;9.50;5.75;;;18.50;55.10;;;;;;5018607;28;20156;-77
2023/05/25 10:25:42;;;;;;;13.45;7.15;;;18.50;54.20;;;;;;5021455;28;20030;-77
2023/05/25 10:28:18;;;;;;;9.43;5.78;;;18.60;54.70;;;;;;5016377;28;20029;-77
2023/05/25 10:30:45;;;;;;;11.30;6.75;;;18.70;54.50;;;;;;5017019;28;20029;-77
2023/05/25 10:33:11;;;;;;;10.98;5.40;;;18.70;52.40;;;;;;5021186;28;20045;-78
2023/05/25 10:35:39;;;;;;;8.45;5.28;;;18.70;53.70;;;;;;5018790;28;20061;-77
2023/05/25 10:38:04;;;;;;;9.45;5.35;;;18.80;54.20;;;;;;5021165;28;20037;-78
2023/05/25 10:40:31;;;;;;;9.98;5.70;;;18.70;52.70;;;;;;5018599;28;20038;-78
2023/05/25 10:42:57;;;;;;;9.82;5.18;;;18.50;54.50;;;;;;5019123;28;20041;-78
2023/05/25 10:45:23;;;;;;;11.52;5.00;;;18.80;53.50;;;;;;5019264;28;20358;-78
2023/05/25 10:47:49;;;;;;;11.75;5.95;;;18.50;54.30;;;;;;5015836;28;20037;-77
2023/05/25 10:50:18;;;;;;;9.93;5.28;;;18.70;53.80;;;;;;5013566;28;20453;-78
2023/05/25 10:52:44;;;;;;;10.52;5.22;;;19.10;53.90;;;;;;5016294;28;20072;-78
2023/05/25 10:55:11;;;;;;;9.77;5.18;;;19.10;53.40;;;;;;5016728;28;20443;-78
2023/05/25 10:57:37;;;;;;;8.40;4.82;;;19.20;53.30;;;;;;5020856;28;20462;-78
2023/05/25 11:00:05;;;;;;;7.72;4.72;;;19.10;52.70;;;;;;5016840;28;20101;-78
2023/05/25 11:02:53;;;;;;;9.82;5.35;;;19.00;52.50;;;;;;5018426;28;20037;-78
2023/05/25 11:05:25;;;;;;;10.02;5.90;;;19.10;53.30;;;;;;5019600;28;20061;-78
2023/05/25 11:07:58;;;;;;;13.88;5.28;;;19.10;51.90;;;;;;5014773;28;20033;-78
2023/05/25 11:10:48;;;;;;;10.13;5.20;;;19.00;52.60;;;;;;5021901;28;20013;-78
2023/05/25 11:13:38;;;;;;;11.68;5.35;;;18.60;53.00;;;;;;4995829;28;20376;-77
2023/05/25 11:16:23;;;;;;;12.75;5.93;;;18.70;53.20;;;;;;5019761;28;20669;-79
2023/05/25 11:18:53;;;;;;;11.60;6.03;;;18.60;54.00;;;;;;5016107;28;20067;-78
2023/05/25 11:21:39;;;;;;;12.55;6.20;;;19.00;54.30;;;;;;5018486;28;20041;-78
2023/05/25 11:24:12;;;;;;;10.35;5.72;;;18.70;53.70;;;;;;5017121;28;20036;-78
2023/05/25 11:26:55;;;;;;;10.82;4.88;;;19.00;53.20;;;;;;5017722;28;20026;-79
2023/05/25 11:29:21;;;;;;;10.75;5.32;;;19.70;52.80;;;;;;5020327;28;20045;-78
2023/05/25 11:31:52;;;;;;;12.07;5.40;;;19.30;52.70;;;;;;5016234;28;20478;-78
2023/05/25 11:34:20;;;;;;;16.63;6.75;;;19.20;53.40;;;;;;5019860;28;20432;-78
2023/05/25 11:36:46;;;;;;;11.15;6.63;;;18.70;53.00;;;;;;5017478;28;20038;-78
2023/05/25 11:39:12;;;;;;;11.40;6.50;;;19.00;52.70;;;;;;5022985;28;20425;-78
2023/05/25 11:41:45;;;;;;;17.50;6.50;;;19.10;53.20;;;;;;5017086;28;20542;-78
2023/05/25 11:44:12;;;;;;;11.63;6.20;;;18.80;53.50;;;;;;5022750;28;20109;-78
2023/05/25 11:46:40;;;;;;;12.50;5.60;;;18.80;53.10;;;;;;5019002;28;20041;-78
2023/05/25 11:49:05;;;;;;;11.43;5.72;;;19.20;53.20;;;;;;5019861;28;20029;-78
2023/05/25 11:51:31;;;;;;;12.00;6.13;;;19.60;52.30;;;;;;5016789;28;20445;-77
2023/05/25 11:53:57;;;;;;;10.95;6.07;;;19.50;51.90;;;;;;5018896;28;20371;-79
2023/05/25 11:56:23;;;;;;;15.75;6.47;;;19.70;51.60;;;;;;5017593;28;20457;-78
2023/05/25 11:58:51;;;;;;;13.32;5.88;;;19.90;50.90;;;;;;5019484;28;20533;-78
2023/05/25 12:01:19;;;;;;;11.07;5.65;;;20.00;51.20;;;;;;5016481;28;20046;-79
2023/05/25 12:03:51;;;;;;;9.13;5.50;;;19.60;50.90;;;;;;5019803;28;20088;-79
2023/05/25 12:06:27;;;;;;;10.40;5.38;;;19.30;52.40;;;;;;5015383;28;20033;-78
2023/05/25 12:08:57;;;;;;;11.63;6.30;;;19.30;53.10;;;;;;5018057;28;20036;-78
2023/05/25 12:11:39;;;;;;;12.45;7.10;;;19.80;53.20;;;;;;5021077;28;20049;-78
2023/05/25 12:14:06;;;;;;;14.88;7.32;;;19.90;51.80;;;;;;5006222;28;20121;-78
2023/05/25 12:16:34;;;;;;;14.48;6.65;;;19.60;52.50;;;;;;5022146;28;20120;-78
2023/05/25 12:19:00;;;;;;;13.07;6.60;;;19.50;52.90;;;;;;5015459;28;20330;-78
2023/05/25 12:21:26;;;;;;;13.05;6.70;;;19.80;52.40;;;;;;5019729;28;20030;-79
2023/05/25 12:23:53;;;;;;;10.82;6.53;;;19.60;52.50;;;;;;5018602;28;20520;-78
2023/05/25 12:26:20;;;;;;;10.60;5.75;;;19.50;52.80;;;;;;5019293;28;20041;-79
2023/05/25 12:28:59;;;;;;;16.08;6.50;;;19.80;52.40;;;;;;5015940;28;20025;-79
2023/05/25 12:31:27;;;;;;;12.48;5.57;;;20.20;53.10;;;;;;5018217;28;20429;-77